»·PEaware :: N3891R KSNA-KBUR

N3891R :: KSNA-KBUR

FLIGHT INFORMATION

Flight Status: Arrived
Operator: Privately registered:
United States
More flights under this callsign
Pilot: Markus B. (22479)
Aircraft: CESSNA 172 SKYHAWK
(C172)
More flights by this aircraft type
Origin: KSNA John Wayne-Orange Co
United States
Destination: KBUR Bob Hope-Burbank
United States
More flights between these airports :: More routes between these airports
Route: +SLI V23 POPPR SMO125R SMO SMO311R SILEX
File this flight plan on PilotEdge
Remarks:
Altitude:
(Current/Filed)
4,000ft
Speed:
(Current/Filed)
120kts
Departed: 31-Dec-18 11:13 AM
Arrived: 31-Dec-18 11:46 AM
Distance/Time
Traveled:
40nm/0:33
Distance/Time
To Go:
Arrived

Flight Plot

Page will automatically refresh every two minutes.


Map Options




Map Legend


Flown Route
Filed Route
Departure Airport
Arrival Airport
Navaid (VOR, NDB)
Fix

Horizontal Profiles

Position Reports

Time Latitude Longitude Heading Altitude Ground
Speed
31-Dec-18 10:49 33.676172 -117.870930 213 60ft 0kts
31-Dec-18 10:50 33.676172 -117.870930 213 60ft 0kts
31-Dec-18 10:51 33.676172 -117.870930 213 60ft 0kts
31-Dec-18 10:52 33.676172 -117.870930 213 60ft 0kts
31-Dec-18 10:53 33.676172 -117.870930 213 60ft 0kts
31-Dec-18 10:54 33.676172 -117.870930 213 60ft 0kts
31-Dec-18 10:55 33.676172 -117.870930 213 60ft 0kts
31-Dec-18 10:56 33.676172 -117.870930 213 60ft 0kts
31-Dec-18 10:57 33.676172 -117.870930 213 60ft 0kts
31-Dec-18 10:58 33.676172 -117.870930 213 60ft 0kts
31-Dec-18 10:59 33.676172 -117.870930 213 60ft 0kts
31-Dec-18 11:00 33.676172 -117.870930 213 60ft 0kts
31-Dec-18 11:01 33.676172 -117.870930 213 60ft 0kts
31-Dec-18 11:02 33.676172 -117.870930 213 60ft 0kts
31-Dec-18 11:03 33.676172 -117.870930 213 60ft 0kts
31-Dec-18 11:04 33.676172 -117.870930 213 60ft 0kts
31-Dec-18 11:05 33.676172 -117.870930 213 60ft 0kts
31-Dec-18 11:06 33.676172 -117.870930 213 60ft 0kts
31-Dec-18 11:07 33.675682 -117.871037 151 60ft 11kts
31-Dec-18 11:08 33.679453 -117.868018 19 60ft 20kts
31-Dec-18 11:09 33.681257 -117.866701 91 60ft 0kts
31-Dec-18 11:10 33.681257 -117.866701 91 60ft 0kts
31-Dec-18 11:11 33.681254 -117.866671 96 60ft 2kts
31-Dec-18 11:12 33.670643 -117.872500 210 434ft 73kts
31-Dec-18 11:13 33.654294 -117.895469 234 1043ft 101kts
31-Dec-18 11:14 33.636522 -117.922568 231 1693ft 102kts
31-Dec-18 11:15 33.633060 -117.951483 319 2379ft 99kts
31-Dec-18 11:16 33.656751 -117.967123 331 3077ft 96kts
31-Dec-18 11:17 33.680008 -117.982847 329 3872ft 92kts
31-Dec-18 11:18 33.707215 -118.001542 330 3946ft 125kts
31-Dec-18 11:19 33.737570 -118.022628 330 3946ft 124kts
31-Dec-18 11:20 33.766933 -118.043147 329 3945ft 122kts
31-Dec-18 11:21 33.787491 -118.072992 289 3938ft 122kts
31-Dec-18 11:22 33.797786 -118.111568 287 3938ft 121kts
31-Dec-18 11:23 33.807688 -118.150334 287 3938ft 121kts
31-Dec-18 11:24 33.817505 -118.188954 287 3938ft 121kts
31-Dec-18 11:25 33.827347 -118.227681 287 3938ft 121kts
31-Dec-18 11:26 33.837204 -118.266543 287 3938ft 121kts
31-Dec-18 11:27 33.854512 -118.299712 319 3935ft 121kts
31-Dec-18 11:28 33.880170 -118.325767 320 3935ft 121kts
31-Dec-18 11:29 33.905962 -118.351668 320 3935ft 121kts
31-Dec-18 11:30 33.931722 -118.377544 320 3935ft 122kts
31-Dec-18 11:31 33.958732 -118.404743 320 3937ft 128kts
31-Dec-18 11:32 33.986200 -118.432367 320 3937ft 129kts
31-Dec-18 11:33 34.014073 -118.459704 325 3937ft 129kts
31-Dec-18 11:34 34.043968 -118.483887 326 3937ft 129kts
31-Dec-18 11:35 34.073930 -118.508159 326 3937ft 129kts
31-Dec-18 11:36 34.103543 -118.532182 326 3937ft 129kts
31-Dec-18 11:37 34.133342 -118.556388 326 3937ft 129kts
31-Dec-18 11:38 34.163256 -118.580472 326 3937ft 129kts
31-Dec-18 11:39 34.195379 -118.594778 33 3724ft 141kts
31-Dec-18 11:40 34.201091 -118.548793 95 2917ft 146kts
31-Dec-18 11:41 34.199621 -118.496857 91 1333ft 154kts
31-Dec-18 11:42 34.199902 -118.456993 87 2186ft 103kts
31-Dec-18 11:43 34.198753 -118.417441 92 2004ft 141kts
31-Dec-18 11:44 34.198093 -118.384316 90 1278ft 75kts
31-Dec-18 11:45 34.197794 -118.362060 94 781ft 35kts
31-Dec-18 11:46 34.198598 -118.360397 357 781ft 0kts
31-Dec-18 11:47 34.198965 -118.361346 269 781ft 17kts
31-Dec-18 11:48 34.198793 -118.369241 162 781ft 8kts

Navigation Log

Ident Type
Flight plan parsing failed, navigation log unavailable